Aviation Digital Data Service (ADDS)

Output produced by METARs form (1840 UTC 18 June 2019)
found at http://www.aviationweather.gov/metar/data/
 
LYPG 181830Z 34011KT 9999 FEW050 26/13 Q1013 NOSIG
TAF LYPG 181700Z 1818/1918 36005KT 9999 SCT040 TX32/1913Z TN18/1903Z 
     PROB30 
     TEMPO 1912/1918 VRB15G25KT TSRA FEW030CB SCT033
       
LYTV 181830Z VRB01KT 9999 FEW060 25/13 Q1012 NOSIG
TAF LYTV 181700Z 1818/1918 04008KT CAVOK TX33/1913Z TN17/1903Z 
     PROB40 
     TEMPO 1912/1918 VRB15G25KT TSRA FEW027CB SCT040